Slide Mountain Weather observations

Data are for 10 minute period ending at time listed.
 Day   Time   Solar   Ave.   Ave.  Ave.  Vector  Max.    Baro.  
  of    of     Rad.   Air    Rel.  Wind   Wind   Wind   Press.  
Year   Day            Temp.  Hum.  Speed  Dir.   Gust           
2015   (PST)  Kw/m2    F      %     mph   deg.    mph     mb.   
-----------------------------------------------------------------
 182   13:40   0.90   71.1    42   15.3   263     25.2    721.8 
 182   13:50   0.74   70.1    46   15.2   262     20.3    721.9 
 182   14:00   0.64   69.3    48   13.7   262     19.6    721.8 
 182   14:10   0.67   69.8    49   11.8   265     19.4    721.8 
 182   14:20   0.77   70.2    49   12.3   259     19.7    721.8 
 182   14:30   0.78   70.6    48   11.9   258     20.0    721.7 
 182   14:40   0.86   70.7    48   15.1   259     23.9    721.7 
 182   14:50   0.54   70.1    48   15.8   255     22.8    721.7 
 182   15:00   0.70   69.6    49   15.7   257     24.2    721.7 
 182   15:10   0.80   70.2    47   17.0   259     23.7    721.6 
 182   15:20   0.72   70.0    48   18.7   259     31.2    721.4 
 182   15:30   0.66   68.4    49   20.2   257     29.1    721.4 
 182   15:40   0.64   68.7    51   19.1   256     26.5    721.4 
 182   15:50   0.58   67.7    53   20.4   253     28.2    721.4 
 182   16:00   0.40   66.9    54   18.4   259     27.9    721.5 
 182   16:10   0.18   64.9    57   19.0   258     26.0    721.5 
 182   16:20   0.09   63.2    60   19.9   265     27.0    721.7 
 182   16:30   0.05   62.3    61   18.9   270     25.7    721.7 
 182   16:40   0.04   61.1    64   19.7   267     27.9    721.7 
 182   16:50   0.05   60.6    65   22.0   269     31.3    721.4 
 182   17:00   0.06   60.6    66   19.8   273     28.6    721.3 
 182   17:10   0.05   61.3    60   22.4   268     27.7    721.5 
 182   17:20   0.05   61.3    59   23.3   266     30.9    721.5 
 182   17:30   0.05   59.9    65   19.9   265     27.5    721.5 
 182   17:40   0.07   60.0    63   17.3   275     22.6    721.5 
 182   17:50   0.09   61.0    58   14.1   293     20.1    721.5 
 182   18:00   0.10   62.1    54   12.3   294     18.8    721.3 
 182   18:10   0.09   62.5    52   11.9   314     17.4    721.3 
 182   18:20   0.08   62.6    52    7.9   292     11.9    721.4 
 182   18:30   0.07   62.5    52    8.3   308     14.3    721.5 
 182   18:40   0.06   62.2    52   11.3   324     17.1    721.4 
 182   18:50   0.07   62.3    50   10.3   332     19.5    721.4 
 182   19:00   0.07   62.7    48    8.6   329     13.7    721.4 
 182   19:10   0.04   62.6    48    7.9   335     12.5    721.4 
 182   19:20   0.02   62.6    45    6.1   338      9.1    721.5 
 182   19:30   0.01   62.2    47    4.9   314      7.7    721.7 
 182   19:40   0.01   59.6    60   10.9   288     16.8    721.6 
 182   19:50   0.00   59.7    56    9.1   310     11.9    721.5 
 182   20:00   0.00   60.5    52    8.5   330     12.6    721.6 
 182   20:10   0.00   61.3    49    9.2   350     15.5    721.6 
 182   20:20   0.00   63.2    44   10.2   352     15.0    721.6 
 182   20:30   0.00   63.2    44   10.8   358     17.3    721.8 
 182   20:40   0.00   63.8    43   13.1   356     21.9    721.8 
 182   20:50   0.00   63.8    43   15.8   354     23.1    721.8 
 182   21:00   0.00   63.8    43   14.7     5     23.1    721.9 
 182   21:10   0.00   63.6    43   14.9     1     23.4    721.9 
 182   21:20   0.00   63.3    43   13.1     6     19.9    721.9 
 182   21:30   0.00   63.0    43   18.5   357     25.8    721.9 
 182   21:40   0.00   62.7    43   18.4   356     24.2    721.8 
 182   21:50   0.00   62.6    43   16.1   358     23.3    721.9 
 182   22:00   0.00   62.4    43   13.1    11     19.5    721.9 
 182   22:10   0.00   62.2    43   15.0    44     21.9    722.0 
 182   22:20   0.00   61.3    46   13.7    33     19.2    722.0 
 182   22:30   0.00   61.1    46   14.0    21     20.1    721.9 
 182   22:40   0.00   60.8    47   11.6    41     19.6    721.9 
 182   22:50   0.00   58.0    61   12.9    99     19.1    722.0 
 182   23:00   0.00   57.4    62   16.4   120     22.1    722.1 
 182   23:10   0.00   57.6    61   13.1   126     19.0    722.1 
 182   23:20   0.00   58.1    60   12.2   124     21.0    722.0 
 182   23:30   0.00   58.3    58    9.8   117     15.6    721.9 
 182   23:40   0.00   58.4    57   12.1   118     15.7    721.8 
 182   23:50   0.00   58.3    58    8.2   118     15.2    721.8 
 183    0:00   0.00   58.1    58    7.2   113     11.1    721.7 
 183    0:10   0.00   58.4    56    6.3   126      9.9    721.7 
 183    0:20   0.00   58.7    55    1.8   133      4.9    721.6 
 183    0:30   0.00   58.9    53    0.7    71      4.7    721.5 
 183    0:40   0.00   59.7    49    6.3    46     11.3    721.4 
 183    0:50   0.00   60.1    48   10.9    44     13.9    721.4 
 183    1:00   0.00   60.4    48   12.6    40     17.2    721.2 
 183    1:10   0.00   61.2    46   14.1    39     18.1    721.2 
 183    1:20   0.00   61.5    46   16.2    33     21.8    721.1 
 183    1:30   0.00   62.3    44   19.8    36     27.1    721.0 
 183    1:40   0.00   62.5    43   18.5    31     24.2    720.9 
 183    1:50   0.00   62.4    44   16.9    43     23.6    721.0 
 183    2:00   0.00   62.2    44   15.9    47     25.3    721.1 
 183    2:10   0.00   62.0    44   14.0    52     23.4    721.2 
 183    2:20   0.00   61.6    45    8.8    47     12.4    721.3 
 183    2:30   0.00   62.3    43    8.3    38     12.2    721.3 
 183    2:40   0.00   62.0    45    1.9    46      7.5    721.4 
 183    2:50   0.00   59.3    52    2.9   261      7.7    721.4 
 183    3:00   0.00   58.7    53    3.5   267      7.7    721.3 
 183    3:10   0.00   59.1    51    1.1   261      5.6    721.3 
 183    3:20   0.00   59.9    48    0.1    44      0.1    721.2 
 183    3:30   0.00   59.8    50    0.2   337      1.1    721.2 
 183    3:40   0.00   60.4    46    0.6    91      3.5    721.2 
 183    3:50   0.00   61.5    45    0.1    97      0.1    721.2 
 183    4:00   0.00   61.6    44    2.0    82      6.5    721.2 
 183    4:10   0.00   60.3    49    0.1   231      0.1    721.3 
 183    4:20   0.00   60.1    48    0.1   238      0.1    721.3 
 183    4:30   0.00   59.7    50    1.5   260      5.5    721.4 
 183    4:40   0.00   59.1    51    3.3   259      7.7    721.4 
 183    4:50   0.01   58.4    53    0.9   294      3.2    721.4 
 183    5:00   0.01   57.7    54    3.1   275      9.6    721.4 
 183    5:10   0.02   56.9    57    8.3   262     15.1    721.4 
 183    5:20   0.04   56.7    58    7.1   262     15.1    721.4 
 183    5:30   0.04   56.3    60    8.5   275     13.1    721.4 
 183    5:40   0.05   57.3    55    1.2   312      4.7    721.4 
 183    5:50   0.06   60.9    47    0.1    77      0.1    721.5 
 183    6:00   0.07   59.2    53    2.3   274      5.2    721.5 
 183    6:10   0.08   57.2    58    5.4   271      7.8    721.5 
 183    6:20   0.12   57.8    55    2.3   275      7.3    721.6 
 183    6:30   0.21   59.2    53    1.2   268      3.8    721.7 
 183    6:40   0.17   59.1    54    1.8   270      3.8    721.7 
 183    6:50   0.21   59.0    54    5.4   266      9.1    721.7 
 183    7:00   0.33   59.7    53    7.0   266      9.8    721.7 
 183    7:10   0.37   60.7    52    3.6   270      6.9    721.8 
 183    7:20   0.39   62.1    49    0.4   273      3.2    721.9 
 183    7:30   0.41   65.8    44    0.3   127      2.1    721.9 
 183    7:40   0.35   68.0    40    0.1   187      0.3    722.0 
 183    7:50   0.42   66.7    42    0.1   205      0.1    721.9 
 183    8:00   0.47   67.5    41    0.1   208      0.1    721.9 
 183    8:10   0.45   67.7    41    0.1   220      0.1    721.9 
 183    8:20   0.48   68.3    40    0.2   207      0.8    722.0 
 183    8:30   0.45   68.9    42    0.2   166      0.7    722.0 
 183    8:40   0.49   68.7    41    0.1   161      0.5    722.0 
 183    8:50   0.48   69.1    43    0.1   178      0.4    721.9 
 183    9:00   0.55   67.8    46    0.2   199      0.7    721.9 
 183    9:10   0.71   69.9    42    0.7   115      3.5    722.0 
 183    9:20   0.44   67.9    43    1.7   109      6.1    722.0 
 183    9:30   0.78   68.3    44    3.4   131      6.9    722.0 
 183    9:40   0.64   68.0    44    3.5   121      9.5    722.0 
 183    9:50   0.74   68.2    43    4.8   116     12.7    722.0 
 183   10:00   0.74   68.7    42    6.5   112     14.6    722.1 
 183   10:10   0.75   66.8    43    7.3   121     15.2    722.1 
 183   10:20   0.76   70.5    38    0.7   126      3.0    722.1 
 183   10:30   0.76   71.6    37    0.7   153      2.8    722.2 
 183   10:40   0.80   72.7    35    0.9   128      5.2    722.2 
 183   10:50   0.80   71.2    37    9.1   116     19.6    722.2 
 183   11:00   0.80   68.2    41   11.8   113     20.0    722.1 
 183   11:10   0.82   68.5    41    7.8   119     20.0    722.1 
 183   11:20   0.82   70.6    38    6.5   126     15.6    722.1 
 183   11:30   0.81   70.1    39    9.3   104     16.5    722.1 
 183   11:40   0.89   70.5    37    7.0   145     15.4    722.1 
 183   11:50   0.86   70.4    38    6.1   128     14.1    722.1 
 183   12:00   0.88   70.0    38    9.1   116     18.7    722.0 
 183   12:10   0.92   70.7    38    6.2   153     12.0    722.0 
 183   12:20   0.91   71.8    36    8.6   128     16.8    722.0 
 183   12:30   0.89   70.5    37    9.8   101     18.1    721.9 
 183   12:40   0.89   72.0    35    6.2   112     18.9    721.8 
 183   12:50   0.70   72.4    34    5.4   111     10.2    721.8 
 183   13:00   0.64   73.3    33    0.8   140      4.5    721.7 
 183   13:10   0.91   72.9    33    6.1   100     14.8    721.7 
 183   13:20   0.78   72.2    34    8.6   101     21.9    721.6 
 183   13:30   0.20   72.6    33    3.9    93     11.7    721.6 

Return to Slide Mountain graphs page.


Western Regional Climate Center,wrcc@dri.edu